Hlavní strana
METAR-TAF:

METAR-TAF

Letiště :

Kajaani, Finsko

zeměpisná šířka: 64-17N, zeměpisná délka: 027-41E, výška: 143 m

Aktuální stav počasí

Zpráva byla vytvořena před 24 minutami, v 02:50 UTC
Severozápadní vítr 4 kt, proměnlivý mezi západním a severoseverozápadním
Teplota 13°C
Vlhkost vzduchu 100%
Tlak 999 hPa
Viditelnost 10 km a více
Skoro jasno ve výšce 600 ft
Polojasno ve výšce 2100 ft
slabé dešťové přeháňky

METAR: EFKI 130250Z AUTO 31004KT 280V340 9999 -SHRA FEW006 SCT021 //////CB 13/13 Q0999

Čas: 06:14 (03:14 UTC)

Předpověď počasí

Zpráva byla vytvořena před 24 hodinami a 52 minutami, v 02:22 UTC
Předpověď platná od 12 v 03 UTC do 12 v 06 UTC
Jihojihovýchodní vítr 11 kt
Viditelnost 10 km a více
Žádná oblačnost pod 1500 m, nevyskytují se cumulonimby.

TAF: EFKI 120222Z 1203/1206 16011KT CAVOK

Stav a předpovědi počasí z více než 4 000 letišť (zprávy METAR a TAF).

Červené a žluté tečky na mapě představují dostupné meteorologické stanice.

Když kurzor umístíte na tečku, zobrazí se název stanice.

Pak kliknutím zobrazíte stav a předpověď počasí.

Chcete-li změnit mapu, kliknutím na zelené tlačítko se znaménkem +mapu přiblížíte, kliknutím na zelené tlačítko se znaménkem – mapu oddálíte a kliknutím na zelené šipky přejdete na sousední mapy.


METAR-TAF: